Latest Weather Observations for Temora

IDN60801

Issued at 5:05 pm EDT Thursday 5 March 2015 (issued every 30 minutes, with the page automatically refreshed every 10 minutes)

About weather observations | Map of weather stations | Latest weather observations for NSW | Other Formats
Station Details ID: 073151 Name: TEMORA AIRPORT Lat: -34.43 Lon: 147.51 Height: 280.5 m
Data from the previous 72 hours. | See also: Recent months at Temora
Date/Time
EDT
Temp
°C
App
Temp
°C
Dew
Point
Rel
Hum
%
Delta-T
°C
Wind Press
QNH
hPa
Press
MSL
hPa
Rain
since 9 am
mm
Dir
 
Spd
km/h
Gust
km/h
Spd
kts
Gust
kts
05/05:00pm 23.0 14.8 -1.1 20 10.8 SW 32 50 17 27 1012.5 1011.4 -
05/04:33pm 22.2 14.3 -1.8 20 10.6 SW 30 50 16 27 1012.6 1011.5 -
05/04:30pm 22.0 13.8 -0.7 22 10.2 SW 32 46 17 25 1012.6 1011.5 -
05/04:11pm 22.0 13.6 -1.3 21 10.4 SSW 33 52 18 28 1012.9 1011.9 -
05/04:00pm - - - - - SSW 35 46 19 25 - - -
05/03:33pm 22.3 14.4 -1.7 20 10.6 SW 30 56 16 30 1013.4 1012.4 -
05/03:30pm 22.0 14.6 -0.7 22 10.2 SSW 28 41 15 22 1013.4 1012.4 -
05/02:30pm 21.8 13.3 -2.1 20 10.4 SW 33 52 18 28 1013.3 1012.3 0.0
05/02:00pm 21.1 12.1 -2.7 20 10.2 SW 35 56 19 30 1013.5 1012.5 0.0
05/01:30pm 20.3 10.5 -3.4 20 10.0 SW 39 57 21 31 1013.4 1012.4 0.0
05/01:00pm 21.7 12.1 -4.4 17 10.9 WSW 37 56 20 30 1013.5 1012.5 0.0
05/12:30pm 20.4 11.5 -5.4 17 10.4 SW 33 52 18 28 1014.1 1013.1 0.0
05/12:01pm 19.6 10.1 -3.9 20 9.7 WSW 37 56 20 30 1014.5 1013.5 0.0
05/12:00pm 19.6 10.2 -2.7 22 9.4 WSW 37 54 20 29 1014.5 1013.5 0.0
05/11:30am 19.1 10.3 1.1 30 8.2 SW 37 61 20 33 1014.6 1013.6 0.0
05/11:10am 18.5 9.8 1.9 33 7.6 SW 37 57 20 31 1014.7 1013.7 0.0
05/11:00am 18.7 10.5 2.5 34 7.6 SW 35 50 19 27 1014.7 1013.7 0.0
05/10:45am 19.2 11.7 4.6 38 7.1 SW 33 52 18 28 1014.5 1013.5 0.0
05/10:30am 18.3 11.1 5.8 44 6.2 SW 33 46 18 25 1014.4 1013.4 0.0
05/10:00am 18.3 12.5 9.4 56 4.7 SW 30 46 16 25 1013.9 1012.9 0.0
05/09:31am 17.8 11.6 9.2 57 4.6 SW 32 54 17 29 1013.7 1012.7 0.0
05/09:30am 17.6 11.3 9.0 57 4.5 SW 32 48 17 26 1013.7 1012.7 0.0
05/09:00am 17.3 10.6 9.5 60 4.1 SW 35 54 19 29 1013.5 1012.5 0.0
05/08:53am 17.0 10.8 9.2 60 4.1 SW 32 52 17 28 1013.6 1012.6 0.0
05/08:30am 16.6 10.9 9.8 64 3.6 WSW 30 43 16 23 1013.5 1012.5 0.0
05/08:08am 16.0 10.6 9.4 65 3.5 SW 28 46 15 25 1013.2 1012.2 0.0
05/08:00am 15.8 10.7 9.2 65 3.5 WSW 26 39 14 21 1013.1 1012.1 0.0
05/07:30am 15.0 11.1 8.5 65 3.3 WSW 19 24 10 13 1012.4 1011.3 0.0
05/07:00am 15.0 10.5 8.5 65 3.3 WSW 22 33 12 18 1012.0 1010.9 0.0
05/06:30am 15.3 11.2 8.5 64 3.5 WSW 20 32 11 17 1011.5 1010.4 0.0
05/06:00am 15.8 11.6 8.3 61 3.9 WSW 20 32 11 17 1011.4 1010.3 0.0
05/05:30am 16.5 11.5 8.0 57 4.4 SW 24 41 13 22 1011.2 1010.1 0.0
05/05:00am 17.0 12.6 7.4 53 4.9 SW 20 32 11 17 1010.9 1009.9 0.0
05/04:30am 17.5 13.1 6.4 48 5.5 SW 19 28 10 15 1010.9 1009.9 0.0
05/04:00am 18.0 12.5 5.9 45 6.0 SW 24 37 13 20 1010.8 1009.8 0.0
05/03:30am 18.2 13.6 3.7 38 6.9 SW 17 24 9 13 1010.8 1009.8 0.0
05/03:00am 17.1 13.0 2.3 37 6.8 SW 13 17 7 9 1010.7 1009.7 0.0
05/02:30am 16.7 13.6 1.2 35 6.9 SW 7 11 4 6 1010.9 1009.9 0.0
05/02:00am 17.0 14.0 1.0 34 7.1 WSW 6 9 3 5 1011.3 1010.2 0.0
05/01:30am 17.2 14.2 0.8 33 7.3 SW 6 9 3 5 1011.4 1010.3 0.0
05/01:00am 17.7 14.5 0.8 32 7.6 SW 7 9 4 5 1011.6 1010.5 0.0
05/12:30am 18.5 15.3 0.6 30 8.0 WSW 7 11 4 6 1011.5 1010.4 0.0
05/12:00am 19.0 15.3 0.1 28 8.4 WSW 9 13 5 7 1011.6 1010.5 0.0
 
Date/Time
EDT
Temp
°C
App
Temp
°C
Dew
Point
Rel
Hum
%
Delta-T
°C
Wind Press
QNH
hPa
Press
MSL
hPa
Rain
since 9 am
mm
Dir
 
Spd
km/h
Gust
km/h
Spd
kts
Gust
kts
04/11:30pm 18.4 14.3 0.1 29 8.1 WSW 11 15 6 8 1011.7 1010.6 0.0
04/11:00pm 17.5 13.5 0.2 31 7.6 WSW 11 13 6 7 1011.8 1010.7 0.0
04/10:30pm 18.2 15.1 -0.1 29 8.1 W 6 7 3 4 1011.9 1010.8 0.0
04/10:00pm 20.5 16.8 -0.2 25 9.3 WSW 9 11 5 6 1012.0 1010.9 0.0
04/09:30pm 21.3 17.1 -0.6 23 9.8 WSW 11 13 6 7 1012.0 1010.9 0.0
04/09:00pm 22.1 17.9 -0.6 22 10.2 WSW 11 13 6 7 1011.9 1010.8 0.0
04/08:30pm 23.5 19.2 -1.4 19 11.2 WSW 11 15 6 8 1011.5 1010.4 0.0
04/08:00pm 25.4 20.3 -2.2 16 12.4 WSW 15 20 8 11 1011.2 1010.1 0.0
04/07:30pm 27.3 21.4 -2.5 14 13.5 WSW 19 26 10 14 1010.9 1009.9 0.0
04/07:00pm 28.9 22.4 -2.3 13 14.4 W 22 33 12 18 1010.7 1009.7 0.0
04/06:30pm 29.8 23.7 -2.6 12 15.0 WSW 20 32 11 17 1010.6 1009.6 0.0
04/06:00pm 30.4 24.3 -2.2 12 15.2 WSW 20 30 11 16 1010.6 1009.6 0.0
04/05:30pm 31.0 24.9 0.4 14 15.0 SW 22 35 12 19 1010.5 1009.5 0.0
04/05:00pm 30.7 24.3 1.1 15 14.7 SW 24 37 13 20 1010.5 1009.5 0.0
04/04:30pm 31.3 24.7 -0.4 13 15.4 WSW 24 37 13 20 1010.7 1009.7 0.0
04/04:00pm 30.6 24.8 0.1 14 14.9 WSW 20 35 11 19 1011.2 1010.1 0.0
04/03:30pm 31.2 26.4 2.4 16 14.6 SW 17 28 9 15 1011.7 1010.6 0.0
04/03:00pm 30.3 24.8 1.7 16 14.3 SW 20 39 11 21 1012.1 1011.0 0.0
04/02:30pm 31.0 25.5 3.9 18 14.1 SW 22 35 12 19 1012.3 1011.2 0.0
04/02:00pm 30.4 25.2 2.6 17 14.1 SW 19 33 10 18 1012.6 1011.5 0.0
04/01:30pm 30.1 25.4 3.2 18 13.8 WSW 17 32 9 17 1013.0 1012.0 0.0
04/01:00pm 29.1 24.2 3.9 20 13.0 SW 19 28 10 15 1013.3 1012.3 0.0
04/12:30pm 29.5 25.4 4.2 20 13.1 SW 15 24 8 13 1013.8 1012.8 0.0
04/12:00pm 28.8 24.1 5.0 22 12.4 SW 19 28 10 15 1014.3 1013.3 0.0
04/11:30am 27.7 23.7 6.5 26 11.3 SW 17 22 9 12 1014.6 1013.6 0.0
04/11:00am 27.1 23.4 6.5 27 10.9 SSE 15 26 8 14 1015.0 1013.9 0.0
04/10:30am 26.9 24.8 9.7 34 9.6 SSW 11 15 6 8 1015.0 1013.9 0.0
04/10:00am 25.0 24.5 10.8 41 8.0 SSE 4 9 2 5 1015.0 1013.9 0.0
04/09:30am 23.4 23.8 13.8 54 5.7 NE 4 9 2 5 1015.3 1014.2 0.0
04/09:00am 21.4 21.9 14.1 63 4.3 ENE 4 7 2 4 1015.1 1014.0 0.0
04/08:30am 18.0 16.5 8.6 54 4.9 SSW 6 7 3 4 1014.7 1013.7 0.0
04/08:00am 13.5 11.6 7.5 67 3.0 S 7 9 4 5 1014.5 1013.5 0.0
04/07:30am 11.6 9.6 6.3 70 2.5 SSW 6 7 3 4 1014.1 1013.1 0.0
04/07:00am 12.3 10.0 5.7 64 3.1 S 7 9 4 5 1013.6 1012.6 0.0
04/06:30am 11.4 9.3 5.9 69 2.6 SSW 6 11 3 6 1013.4 1012.4 0.0
04/06:00am 12.6 11.0 6.2 65 3.1 S 4 7 2 4 1013.1 1012.1 0.0
04/05:30am 13.1 12.1 5.8 61 3.5 CALM 0 0 0 0 1013.0 1012.0 0.0
04/05:00am 14.0 13.1 5.9 58 3.9 CALM 0 0 0 0 1012.7 1011.6 0.0
04/04:30am 14.5 13.3 6.6 59 3.9 S 2 11 1 6 1013.0 1012.0 0.0
04/04:00am 14.4 13.4 5.7 56 4.2 CALM 0 0 0 0 1013.0 1012.0 0.0
04/03:30am 15.3 13.1 5.5 52 4.7 S 6 9 3 5 1013.2 1012.2 0.0
04/03:00am 17.1 14.4 3.8 41 6.3 SSW 7 9 4 5 1013.5 1012.5 0.0
04/02:30am 18.2 15.6 4.0 39 6.8 SSE 7 7 4 4 1013.5 1012.5 0.0
04/02:00am 19.1 16.0 3.7 36 7.4 S 9 13 5 7 1013.7 1012.7 0.0
04/01:30am 20.0 16.5 3.7 34 7.9 S 11 15 6 8 1013.7 1012.7 0.0
04/01:00am 21.5 17.3 3.7 31 8.7 SSW 15 20 8 11 1013.7 1012.7 0.0
04/12:30am 21.6 17.5 4.2 32 8.6 SSW 15 19 8 10 1013.8 1012.8 0.0
04/12:00am 22.1 17.8 5.1 33 8.5 SSW 17 20 9 11 1013.7 1012.7 0.0
 
Date/Time
EDT
Temp
°C
App
Temp
°C
Dew
Point
Rel
Hum
%
Delta-T
°C
Wind Press
QNH
hPa
Press
MSL
hPa
Rain
since 9 am
mm
Dir
 
Spd
km/h
Gust
km/h
Spd
kts
Gust
kts
03/11:30pm 19.8 17.1 7.2 44 6.5 SSW 11 17 6 9 1013.8 1012.8 0.0
03/11:00pm 19.2 16.2 7.9 48 5.9 SW 13 26 7 14 1013.8 1012.8 0.0
03/10:30pm 18.0 16.2 8.0 52 5.2 SSW 7 9 4 5 1013.6 1012.6 0.0
03/10:00pm 19.3 17.7 8.0 48 5.9 SSW 6 7 3 4 1013.6 1012.6 0.0
03/09:30pm 19.5 17.7 7.9 47 6.0 SSW 7 9 4 5 1013.6 1012.6 0.0
03/09:00pm 22.8 21.5 7.8 38 8.0 SSE 4 7 2 4 1013.3 1012.3 0.0
03/08:30pm 23.7 21.7 8.5 38 8.2 SSW 9 11 5 6 1013.1 1012.1 0.0
03/08:00pm 26.0 25.7 8.5 33 9.6 CALM 0 2 0 1 1012.8 1011.7 0.0
03/07:30pm 27.9 26.3 10.1 33 10.1 SSW 9 11 5 6 1012.6 1011.5 0.0
03/07:00pm 29.3 27.9 10.9 32 10.7 SW 9 13 5 7 1012.5 1011.4 0.0
03/06:30pm 30.1 27.1 10.6 30 11.3 SW 17 24 9 13 1012.4 1011.3 0.0
03/06:00pm 30.0 28.0 10.0 29 11.4 SSW 11 15 6 8 1012.4 1011.3 0.0
03/05:30pm 30.0 26.8 10.0 29 11.4 SW 17 22 9 12 1012.3 1011.2 0.0
03/05:00pm 29.8 26.7 8.8 27 11.8 SW 15 24 8 13 1012.4 1011.3 0.0
03/04:30pm 30.3 27.2 10.3 29 11.5 S 17 22 9 12 1012.5 1011.4 0.0
03/04:00pm 30.1 27.7 10.1 29 11.5 SW 13 20 7 11 1012.5 1011.4 0.0
03/03:30pm 30.7 28.4 11.6 31 11.2 WSW 15 22 8 12 1012.8 1011.7 0.0
03/03:00pm 30.6 29.3 12.5 33 10.8 SSE 11 17 6 9 1013.2 1012.2 0.0
03/02:30pm 29.7 28.7 13.5 37 9.8 SW 11 19 6 10 1013.6 1012.6 0.0
03/02:00pm 28.1 26.5 12.8 38 9.1 S 13 17 7 9 1013.7 1012.7 0.0
03/01:30pm 29.5 29.3 13.7 38 9.6 ESE 7 19 4 10 1014.0 1013.0 0.0
03/01:00pm 28.3 27.8 14.9 44 8.2 WNW 11 19 6 10 1014.4 1013.4 0.0
03/12:30pm 27.2 26.3 14.9 47 7.5 WNW 13 17 7 9 1014.7 1013.7 0.0
03/12:00pm 26.9 26.1 15.0 48 7.3 NW 13 19 7 10 1015.2 1014.1 0.0
03/11:30am 25.7 24.3 14.5 50 6.8 NNW 15 24 8 13 1015.6 1014.5 0.0
03/11:00am 25.5 23.4 14.6 51 6.6 N 19 24 10 13 1015.6 1014.5 0.0
03/10:30am 24.2 22.5 13.7 52 6.2 N 15 20 8 11 1015.9 1014.8 0.0
03/10:00am 23.1 21.8 13.6 55 5.6 NE 13 20 7 11 1015.5 1014.4 0.0
03/09:30am 22.3 20.5 13.4 57 5.2 NE 15 20 8 11 1015.6 1014.5 0.0
03/09:00am 21.4 19.2 13.3 60 4.7 NE 17 22 9 12 1015.5 1014.4 0.0
03/08:30am 20.0 17.7 13.0 64 4.0 ENE 17 24 9 13 1015.1 1014.0 0.0
03/08:00am 19.2 17.4 13.4 69 3.3 ENE 15 19 8 10 1015.2 1014.1 0.0
03/07:30am 17.9 16.8 13.2 74 2.7 ENE 11 17 6 9 1014.7 1013.7 0.0
03/07:00am 17.4 16.2 12.9 75 2.5 ENE 11 15 6 8 1014.3 1013.3 0.0
03/06:30am 17.7 15.8 13.0 74 2.7 ENE 15 19 8 10 1013.9 1012.9 0.0
03/06:00am 17.8 15.9 13.1 74 2.7 E 15 20 8 11 1013.6 1012.6 0.0
03/05:30am 18.1 15.8 13.0 72 2.9 ENE 17 20 9 11 1013.4 1012.4 0.0
03/05:00am 18.2 16.3 12.9 71 3.0 E 15 19 8 10 1013.5 1012.5 0.0
03/04:30am 18.5 16.2 12.9 70 3.2 E 17 20 9 11 1013.5 1012.5 0.0
03/04:00am 18.8 16.4 12.8 68 3.4 E 17 20 9 11 1013.5 1012.5 0.0
03/03:30am 19.0 17.4 12.7 67 3.6 E 13 17 7 9 1013.6 1012.6 0.0
03/03:00am 19.5 17.1 12.7 65 3.9 E 17 22 9 12 1013.4 1012.4 0.0
03/02:30am 19.8 17.4 12.6 63 4.1 E 17 20 9 11 1013.3 1012.3 0.0
03/02:00am 20.2 17.8 12.7 62 4.3 E 17 20 9 11 1013.4 1012.4 0.0
03/01:30am 20.5 17.7 12.7 61 4.5 E 19 26 10 14 1013.6 1012.6 0.0
03/01:00am 21.1 18.7 12.8 59 4.8 E 17 22 9 12 1013.9 1012.9 0.0
03/12:30am 21.7 18.8 12.8 57 5.1 ESE 20 28 11 15 1013.8 1012.8 0.0
03/12:00am 22.4 19.7 12.9 55 5.5 E 19 26 10 14 1013.6 1012.6 0.0
 
Date/Time
EDT
Temp
°C
App
Temp
°C
Dew
Point
Rel
Hum
%
Delta-T
°C
Wind Press
QNH
hPa
Press
MSL
hPa
Rain
since 9 am
mm
Dir
 
Spd
km/h
Gust
km/h
Spd
kts
Gust
kts
02/11:30pm 22.9 20.2 12.8 53 5.9 E 19 24 10 13 1013.7 1012.7 0.0
02/11:00pm 23.5 21.5 12.8 51 6.2 ESE 15 26 8 14 1013.7 1012.7 0.0
02/10:30pm 23.5 21.7 10.9 45 7.1 ESE 11 17 6 9 1013.6 1012.6 0.0
02/10:00pm 19.4 17.1 7.5 46 6.2 S 9 11 5 6 1013.4 1012.4 0.0
02/09:30pm 22.2 19.7 8.3 41 7.4 S 11 11 6 6 1013.2 1012.2 0.0
02/09:00pm 22.3 20.7 8.1 40 7.6 SSW 6 7 3 4 1013.0 1012.0 0.0
02/08:30pm 23.2 21.2 7.3 36 8.4 SSW 7 9 4 5 1012.5 1011.4 0.0
02/08:00pm 26.4 24.4 6.9 29 10.4 E 7 7 4 4 1012.1 1011.0 0.0
02/07:30pm 29.4 26.9 6.7 24 12.3 ENE 9 13 5 7 1011.6 1010.5 0.0
02/07:00pm 30.4 27.8 6.3 22 13.0 E 9 13 5 7 1011.9 1010.8 0.0
02/06:30pm 31.4 28.9 6.5 21 13.6 ESE 9 17 5 9 1011.9 1010.8 0.0
02/06:00pm 30.5 28.0 6.4 22 13.0 ESE 9 15 5 8 1012.0 1010.9 0.0
02/05:30pm 31.6 30.1 6.6 21 13.6 W 4 11 2 6 1011.9 1010.8 0.0

Other Formats:

Comma delimited format used in spreadsheet applications
http://www.bom.gov.au/fwo/IDN60801/IDN60801.95722.axf

JavaScript Object Notation format (JSON) in row-major order
http://www.bom.gov.au/fwo/IDN60801/IDN60801.95722.json